Time;durP1;ratioP1;P1;durP2;ratioP2;P2;SDS_P1;SDS_P2;PMS_P1;PMS_P2;Temp;Humidity;BMP_temperature;BMP_pressure;BME280_temperature;BME280_humidity;BME280_pressure;Samples;Min_cycle;Max_cycle;Signal;HPM_P1;HPM_P2
2023/10/27 00:00:36;;;;;;;4.93;0.95;;;;;;;7.61;100.00;99579.47;4928040;29;20188;-41
2023/10/27 00:03:02;;;;;;;2.65;0.90;;;;;;;7.62;100.00;99582.97;4930783;29;20187;-42
2023/10/27 00:05:28;;;;;;;6.15;0.90;;;;;;;7.53;100.00;99584.28;4930282;29;20630;-43
2023/10/27 00:07:53;;;;;;;1.88;0.88;;;;;;;7.55;100.00;99582.41;4931596;29;20187;-40
2023/10/27 00:10:19;;;;;;;2.22;0.88;;;;;;;7.58;100.00;99565.41;4926574;29;20250;-42
2023/10/27 00:12:44;;;;;;;3.53;0.77;;;;;;;7.58;100.00;99578.72;4926993;29;20589;-41
2023/10/27 00:15:10;;;;;;;2.25;1.10;;;;;;;7.55;100.00;99581.53;4932452;29;20281;-41
2023/10/27 00:17:35;;;;;;;3.63;1.08;;;;;;;7.52;100.00;99581.66;4926688;29;20187;-41
2023/10/27 00:20:02;;;;;;;2.78;1.05;;;;;;;7.56;100.00;99570.78;4929421;29;20534;-40
2023/10/27 00:22:28;;;;;;;2.42;0.93;;;;;;;7.60;100.00;99569.72;4927637;29;20192;-40
2023/10/27 00:24:53;;;;;;;2.25;0.88;;;;;;;7.55;100.00;99573.53;4928512;29;20731;-42
2023/10/27 00:27:20;;;;;;;1.02;0.93;;;;;;;7.62;100.00;99565.19;4930970;29;20195;-41
2023/10/27 00:29:46;;;;;;;2.70;0.80;;;;;;;7.58;100.00;99565.41;4931534;29;20245;-40
2023/10/27 00:32:11;;;;;;;2.05;0.80;;;;;;;7.54;100.00;99571.81;4927002;29;20791;-40
2023/10/27 00:34:37;;;;;;;4.50;1.00;;;;;;;7.52;100.00;99558.56;4929245;29;20191;-42
2023/10/27 00:37:03;;;;;;;1.90;1.10;;;;;;;7.51;100.00;99570.16;4929439;29;20239;-41
2023/10/27 00:39:28;;;;;;;1.90;1.00;;;;;;;7.57;100.00;99558.34;4927766;29;20274;-41
2023/10/27 00:41:53;;;;;;;3.47;0.95;;;;;;;7.51;100.00;99556.81;4930576;29;20620;-41
2023/10/27 00:44:19;;;;;;;0.95;0.80;;;;;;;7.53;100.00;99554.94;4927939;29;20710;-42
2023/10/27 00:46:45;;;;;;;0.98;0.90;;;;;;;7.51;100.00;99555.97;4925452;29;20220;-42
2023/10/27 00:49:11;;;;;;;3.45;1.10;;;;;;;7.57;100.00;99559.22;4932982;29;20225;-42
2023/10/27 00:51:38;;;;;;;1.52;0.95;;;;;;;7.48;100.00;99551.66;4929977;29;20552;-41
2023/10/27 00:54:05;;;;;;;2.08;0.77;;;;;;;7.51;100.00;99556.81;4926368;29;20665;-41
2023/10/27 00:56:31;;;;;;;3.10;1.08;;;;;;;7.52;100.00;99555.00;4929393;29;20302;-43
2023/10/27 00:58:57;;;;;;;3.30;0.73;;;;;;;7.44;100.00;99552.72;4930747;29;20298;-40
2023/10/27 01:01:23;;;;;;;4.07;0.90;;;;;;;7.49;100.00;99542.69;4928061;29;20682;-43
2023/10/27 01:03:50;;;;;;;2.40;0.70;;;;;;;7.43;100.00;99538.53;4927812;29;20211;-42
2023/10/27 01:06:15;;;;;;;1.60;0.95;;;;;;;7.46;100.00;99534.00;4928766;29;20787;-40
2023/10/27 01:08:41;;;;;;;0.77;0.77;;;;;;;7.47;100.00;99547.22;4926644;29;20243;-40
2023/10/27 01:11:08;;;;;;;3.58;0.82;;;;;;;7.44;100.00;99555.38;4930243;29;20179;-38
2023/10/27 01:13:33;;;;;;;3.47;0.88;;;;;;;7.45;100.00;99540.25;4928933;29;20183;-41
2023/10/27 01:15:59;;;;;;;1.75;0.88;;;;;;;7.48;100.00;99546.31;4928261;29;20199;-42
2023/10/27 01:18:25;;;;;;;1.10;0.80;;;;;;;7.54;100.00;99537.16;4926410;29;20296;-41
2023/10/27 01:20:50;;;;;;;2.00;0.90;;;;;;;7.53;100.00;99543.44;4929450;29;20244;-40
2023/10/27 01:23:16;;;;;;;1.67;0.88;;;;;;;7.49;100.00;99541.84;4928409;29;20311;-42
2023/10/27 01:25:41;;;;;;;2.55;0.88;;;;;;;7.49;100.00;99536.50;4930209;28;20595;-41
2023/10/27 01:28:09;;;;;;;3.55;0.82;;;;;;;7.52;100.00;99552.34;4927608;29;20192;-38
2023/10/27 01:30:34;;;;;;;2.97;1.08;;;;;;;7.48;100.00;99542.75;4926286;28;20553;-41
2023/10/27 01:33:00;;;;;;;1.33;0.90;;;;;;;7.44;100.00;99542.06;4921800;29;20180;-43
2023/10/27 01:35:26;;;;;;;3.05;1.10;;;;;;;7.47;100.00;99547.22;4927072;29;20226;-45
2023/10/27 01:37:51;;;;;;;1.90;1.23;;;;;;;7.45;100.00;99530.44;4927098;29;20206;-42
2023/10/27 01:40:17;;;;;;;7.90;1.20;;;;;;;7.42;100.00;99530.59;4931728;29;20262;-42
2023/10/27 01:42:43;;;;;;;1.02;1.00;;;;;;;7.40;100.00;99527.13;4926027;28;20262;-42
2023/10/27 01:45:09;;;;;;;3.60;1.20;;;;;;;7.43;100.00;99532.31;4926146;29;20708;-40
2023/10/27 01:47:34;;;;;;;2.42;1.05;;;;;;;7.43;100.00;99517.22;4926783;28;20199;-40
2023/10/27 01:50:00;;;;;;;1.85;1.30;;;;;;;7.44;100.00;99520.75;4923945;29;20234;-42
2023/10/27 01:52:26;;;;;;;2.45;1.30;;;;;;;7.41;100.00;99516.41;4925771;29;20214;-41
2023/10/27 01:54:53;;;;;;;4.22;1.50;;;;;;;7.42;100.00;99519.94;4929098;29;20627;-41
2023/10/27 01:57:23;;;;;;;3.35;1.33;;;;;;;7.43;100.00;99508.34;4926935;29;20230;-41
2023/10/27 01:59:49;;;;;;;3.42;1.10;;;;;;;7.51;100.00;99500.00;4930201;29;20191;-41
2023/10/27 02:02:15;;;;;;;4.55;1.55;;;;;;;7.51;100.00;99500.00;4928685;29;20279;-41
2023/10/27 02:04:41;;;;;;;2.88;1.15;;;;;;;7.54;100.00;99499.84;4930027;29;20230;-42
2023/10/27 02:07:07;;;;;;;1.90;1.15;;;;;;;7.53;100.00;99485.66;4929909;29;20271;-41
2023/10/27 02:09:32;;;;;;;1.75;1.10;;;;;;;7.50;100.00;99488.47;4930468;29;20330;-42
2023/10/27 02:11:58;;;;;;;4.03;1.45;;;;;;;7.52;100.00;99494.59;4925581;29;20234;-41
2023/10/27 02:14:28;;;;;;;4.72;1.42;;;;;;;7.51;100.00;99482.19;4925293;29;20184;-42
2023/10/27 02:16:53;;;;;;;3.20;0.95;;;;;;;7.53;100.00;99480.31;4930530;29;20266;-41
2023/10/27 02:19:19;;;;;;;1.42;1.00;;;;;;;7.62;100.00;99479.03;4931673;29;20187;-42
2023/10/27 02:21:46;;;;;;;3.70;1.02;;;;;;;7.60;100.00;99475.56;4928380;29;20190;-40
2023/10/27 02:24:12;;;;;;;4.13;1.55;;;;;;;7.55;100.00;99483.78;4926255;29;20254;-41
2023/10/27 02:26:37;;;;;;;2.85;1.13;;;;;;;7.56;100.00;99482.84;4928192;29;20239;-43
2023/10/27 02:29:03;;;;;;;2.55;1.17;;;;;;;7.66;100.00;99483.28;4931075;29;20207;-42
2023/10/27 02:31:29;;;;;;;1.48;1.20;;;;;;;7.61;100.00;99488.81;4928656;29;20266;-44
2023/10/27 02:33:54;;;;;;;1.00;1.00;;;;;;;7.65;100.00;99478.88;4929888;29;20575;-42
2023/10/27 02:36:20;;;;;;;1.52;1.20;;;;;;;7.64;100.00;99479.81;4925165;29;20195;-41
2023/10/27 02:38:45;;;;;;;1.35;1.15;;;;;;;7.66;100.00;99475.28;4929841;29;20250;-42
2023/10/27 02:41:11;;;;;;;3.03;1.25;;;;;;;7.59;100.00;99490.69;4927901;29;20175;-41
2023/10/27 02:43:40;;;;;;;3.63;1.52;;;;;;;7.65;100.00;99492.19;4923542;29;20179;-40
2023/10/27 02:46:06;;;;;;;3.45;1.30;;;;;;;7.73;100.00;99482.03;4925501;29;20192;-43
2023/10/27 02:48:31;;;;;;;3.45;1.35;;;;;;;7.77;100.00;99488.09;4929437;29;20179;-42
2023/10/27 02:50:58;;;;;;;1.65;1.10;;;;;;;7.70;100.00;99479.53;4925449;29;20275;-42
2023/10/27 02:53:23;;;;;;;4.07;1.40;;;;;;;7.66;100.00;99480.59;4928594;29;20184;-41
2023/10/27 02:55:50;;;;;;;2.90;1.30;;;;;;;7.70;100.00;99492.00;4928457;29;20203;-41
2023/10/27 02:58:16;;;;;;;5.05;1.40;;;;;;;7.66;100.00;99475.28;4931273;29;20183;-42
2023/10/27 03:00:42;;;;;;;2.50;1.20;;;;;;;7.72;100.00;99477.66;4936825;29;20183;-41
2023/10/27 03:03:09;;;;;;;3.42;1.00;;;;;;;7.69;100.00;99480.44;4932392;29;20191;-41
2023/10/27 03:05:35;;;;;;;3.03;1.45;;;;;;;7.68;100.00;99467.22;4925125;29;20194;-42
2023/10/27 03:08:00;;;;;;;1.83;1.30;;;;;;;7.67;100.00;99465.47;4928420;29;20194;-40
2023/10/27 03:10:26;;;;;;;2.22;0.93;;;;;;;7.67;100.00;99469.00;4928514;29;20208;-40
2023/10/27 03:12:52;;;;;;;2.25;1.00;;;;;;;7.67;100.00;99468.13;4926319;29;20938;-40
2023/10/27 03:15:18;;;;;;;2.15;1.27;;;;;;;7.64;100.00;99469.16;4931937;29;20232;-41
2023/10/27 03:17:43;;;;;;;3.83;1.30;;;;;;;7.74;100.00;99467.78;4926176;29;20172;-41
2023/10/27 03:20:09;;;;;;;6.03;1.35;;;;;;;7.70;100.00;99468.88;4925237;29;20188;-42
2023/10/27 03:22:35;;;;;;;3.13;1.10;;;;;;;7.65;100.00;99478.88;4927820;29;20187;-40
2023/10/27 03:25:01;;;;;;;1.48;0.98;;;;;;;7.71;100.00;99472.38;4926741;29;20191;-41
2023/10/27 03:27:27;;;;;;;3.25;1.17;;;;;;;7.75;100.00;99469.50;4928874;29;20184;-41
2023/10/27 03:29:52;;;;;;;2.70;1.08;;;;;;;7.75;100.00;99466.81;4933300;29;20211;-44
2023/10/27 03:32:18;;;;;;;3.42;1.20;;;;;;;7.76;100.00;99460.56;4931912;29;20180;-42
2023/10/27 03:34:45;;;;;;;4.43;1.27;;;;;;;7.67;100.00;99465.47;4931601;29;20180;-42
2023/10/27 03:37:12;;;;;;;2.97;1.20;;;;;;;7.70;100.00;99460.88;4927590;29;20186;-42
2023/10/27 03:39:39;;;;;;;2.45;1.00;;;;;;;7.70;100.00;99455.53;4925777;29;20179;-40
2023/10/27 03:42:07;;;;;;;3.72;1.13;;;;;;;7.63;100.00;99470.06;4941014;29;20200;-43
2023/10/27 03:44:35;;;;;;;1.73;1.25;;;;;;;7.67;100.00;99471.66;4929379;29;20175;-41
2023/10/27 03:47:01;;;;;;;2.28;1.20;;;;;;;7.69;100.00;99455.59;4930620;29;20180;-41
2023/10/27 03:49:27;;;;;;;7.50;1.25;;;;;;;7.70;100.00;99466.19;4929655;29;20207;-42
2023/10/27 03:51:53;;;;;;;4.63;1.13;;;;;;;7.69;100.00;99460.94;4931920;29;20235;-41
2023/10/27 03:54:19;;;;;;;2.92;1.42;;;;;;;7.73;100.00;99460.72;4928931;29;20227;-43
2023/10/27 03:56:44;;;;;;;4.20;1.10;;;;;;;7.70;100.00;99462.69;4930466;28;20230;-42
2023/10/27 03:59:10;;;;;;;2.13;0.90;;;;;;;7.63;100.00;99464.75;4930976;29;20179;-42
2023/10/27 04:01:37;;;;;;;5.07;1.02;;;;;;;7.62;100.00;99460.38;4929634;29;20186;-41
2023/10/27 04:04:03;;;;;;;1.20;1.00;;;;;;;7.60;100.00;99462.25;4927661;29;20184;-42
2023/10/27 04:06:29;;;;;;;2.90;0.85;;;;;;;7.57;100.00;99463.25;4928071;29;20224;-42
2023/10/27 04:08:55;;;;;;;2.80;1.13;;;;;;;7.62;100.00;99452.38;4931528;29;20199;-42
2023/10/27 04:11:20;;;;;;;1.27;0.93;;;;;;;7.61;100.00;99453.31;4929685;29;20564;-43
2023/10/27 04:13:46;;;;;;;2.97;0.93;;;;;;;7.59;100.00;99457.84;4928978;29;20199;-40
2023/10/27 04:16:12;;;;;;;2.78;0.90;;;;;;;7.63;100.00;99456.75;4930002;29;20203;-43
2023/10/27 04:18:38;;;;;;;3.88;1.08;;;;;;;7.62;100.00;99458.56;4928681;29;20602;-42
2023/10/27 04:21:04;;;;;;;2.92;1.20;;;;;;;7.65;100.00;99462.88;4929725;29;20309;-42
2023/10/27 04:23:30;;;;;;;2.38;1.00;;;;;;;7.67;100.00;99470.81;4933358;29;20188;-41
2023/10/27 04:25:56;;;;;;;4.68;1.67;;;;;;;7.66;100.00;99471.75;4929386;29;20310;-42
2023/10/27 04:28:21;;;;;;;2.53;1.10;;;;;;;7.72;100.00;99471.44;4930225;29;20262;-42
2023/10/27 04:30:47;;;;;;;1.73;1.33;;;;;;;7.66;100.00;99469.09;4925849;29;20738;-42
2023/10/27 04:33:12;;;;;;;1.30;1.20;;;;;;;7.64;100.00;99485.16;4930257;29;20195;-42
2023/10/27 04:35:38;;;;;;;3.25;1.70;;;;;;;7.65;100.00;99484.19;4926581;29;20301;-40
2023/10/27 04:38:04;;;;;;;3.25;1.80;;;;;;;7.60;100.00;99484.41;4925700;29;20183;-41
2023/10/27 04:40:30;;;;;;;2.60;1.50;;;;;;;7.69;100.00;99472.44;4927603;29;20207;-41
2023/10/27 04:42:58;;;;;;;1.77;1.50;;;;;;;7.62;100.00;99492.34;4927393;29;20557;-42
2023/10/27 04:45:24;;;;;;;3.80;1.63;;;;;;;7.69;100.00;99480.44;4928353;29;20616;-42
2023/10/27 04:47:49;;;;;;;3.55;1.50;;;;;;;7.59;100.00;99480.03;4928385;29;20203;-43
2023/10/27 04:50:15;;;;;;;1.85;1.67;;;;;;;7.63;100.00;99470.06;4927916;29;20681;-41
2023/10/27 04:52:41;;;;;;;4.25;1.80;;;;;;;7.66;100.00;99479.75;4926620;29;20191;-42
2023/10/27 04:55:07;;;;;;;2.53;1.70;;;;;;;7.65;100.00;99470.88;4927264;29;20294;-42
2023/10/27 04:57:34;;;;;;;1.77;1.30;;;;;;;7.70;100.00;99476.88;4930856;29;20194;-44
2023/10/27 04:59:59;;;;;;;2.38;1.73;;;;;;;7.63;100.00;99475.41;4923640;29;20188;-41
2023/10/27 05:02:25;;;;;;;4.28;1.83;;;;;;;7.56;100.00;99479.31;4928020;29;20200;-42
2023/10/27 05:04:50;;;;;;;3.03;1.60;;;;;;;7.55;100.00;99478.44;4926197;29;20242;-42
2023/10/27 05:07:16;;;;;;;1.30;1.17;;;;;;;7.59;100.00;99471.19;4927792;29;20188;-42
2023/10/27 05:09:41;;;;;;;4.30;1.33;;;;;;;7.63;100.00;99462.06;4927852;29;20258;-42
2023/10/27 05:12:07;;;;;;;7.43;1.60;;;;;;;7.62;100.00;99484.34;4928295;29;20191;-41
2023/10/27 05:14:34;;;;;;;1.65;1.10;;;;;;;7.62;100.00;99477.22;4927392;29;20266;-41
2023/10/27 05:17:00;;;;;;;2.42;1.00;;;;;;;7.62;100.00;99468.38;4927528;29;20187;-42
2023/10/27 05:19:26;;;;;;;1.98;1.10;;;;;;;7.62;100.00;99474.56;4928204;29;20646;-42
2023/10/27 05:21:51;;;;;;;2.50;1.23;;;;;;;7.57;100.00;99481.91;4928320;29;20337;-41
2023/10/27 05:24:16;;;;;;;3.28;1.08;;;;;;;7.58;100.00;99477.44;4925742;29;20188;-42
2023/10/27 05:26:42;;;;;;;3.75;1.30;;;;;;;7.63;100.00;99478.97;4925196;29;20215;-42
2023/10/27 05:29:08;;;;;;;3.20;1.10;;;;;;;7.60;100.00;99464.91;4924133;29;20221;-41
2023/10/27 05:31:34;;;;;;;1.17;1.00;;;;;;;7.67;100.00;99462.81;4926699;29;20196;-41
2023/10/27 05:34:01;;;;;;;4.25;1.35;;;;;;;7.62;100.00;99471.03;4928306;29;20262;-40
2023/10/27 05:36:26;;;;;;;5.35;1.40;;;;;;;7.63;100.00;99470.06;4927690;29;20278;-42
2023/10/27 05:38:52;;;;;;;2.15;1.10;;;;;;;7.69;100.00;99479.59;4926802;29;20183;-42
2023/10/27 05:41:17;;;;;;;2.08;1.10;;;;;;;7.67;100.00;99461.00;4925044;29;20175;-43
2023/10/27 05:43:43;;;;;;;1.40;1.27;;;;;;;7.63;100.00;99467.41;4926597;29;20219;-41
2023/10/27 05:46:09;;;;;;;3.78;1.30;;;;;;;7.60;100.00;99472.91;4924294;29;20215;-43
2023/10/27 05:48:35;;;;;;;2.00;1.00;;;;;;;7.63;100.00;99483.41;4928463;29;20203;-42
2023/10/27 05:51:01;;;;;;;3.92;1.23;;;;;;;7.57;100.00;99470.41;4930831;29;20219;-42
2023/10/27 05:53:27;;;;;;;4.43;1.13;;;;;;;7.53;100.00;99460.81;4925360;29;20755;-41
2023/10/27 05:55:52;;;;;;;3.55;1.17;;;;;;;7.50;100.00;99464.50;4928426;29;20279;-41
2023/10/27 05:58:18;;;;;;;4.13;1.10;;;;;;;7.55;100.00;99461.59;4929027;29;20184;-41
2023/10/27 06:00:43;;;;;;;1.85;1.10;;;;;;;7.51;100.00;99466.22;4929866;29;20243;-42
2023/10/27 06:03:08;;;;;;;2.42;1.20;;;;;;;7.53;100.00;99468.81;4926912;29;20194;-42
2023/10/27 06:05:34;;;;;;;7.35;1.70;;;;;;;7.47;100.00;99459.28;4924353;29;20710;-42
2023/10/27 06:07:59;;;;;;;2.85;1.50;;;;;;;7.48;100.00;99471.69;4929692;29;20183;-43
2023/10/27 06:10:25;;;;;;;1.92;1.35;;;;;;;7.48;100.00;99469.03;4925942;29;20631;-44
2023/10/27 06:12:50;;;;;;;7.68;1.52;;;;;;;7.39;100.00;99465.00;4941966;29;20202;-40
2023/10/27 06:15:16;;;;;;;2.38;1.48;;;;;;;7.37;100.00;99474.88;4927995;29;20257;-41
2023/10/27 06:17:43;;;;;;;2.92;1.35;;;;;;;7.40;100.00;99464.03;4934021;29;20196;-41
2023/10/27 06:20:08;;;;;;;3.38;1.38;;;;;;;7.38;100.00;99465.91;4930417;29;20597;-42
2023/10/27 06:22:34;;;;;;;2.25;1.35;;;;;;;7.43;100.00;99469.25;4927638;29;20196;-42
2023/10/27 06:25:00;;;;;;;3.60;1.23;;;;;;;7.38;100.00;99473.06;4925421;29;20246;-41
2023/10/27 06:27:26;;;;;;;3.53;1.40;;;;;;;7.41;100.00;99480.88;4928617;29;20183;-41
2023/10/27 06:29:51;;;;;;;3.15;1.58;;;;;;;7.44;100.00;99475.44;4926805;29;20679;-43
2023/10/27 06:32:17;;;;;;;1.27;1.20;;;;;;;7.42;100.00;99474.66;4929928;29;20202;-43
2023/10/27 06:34:43;;;;;;;2.78;1.33;;;;;;;7.51;100.00;99476.00;4925640;29;20180;-42
2023/10/27 06:37:09;;;;;;;7.47;1.58;;;;;;;7.46;100.00;99473.56;4930191;29;20559;-43
2023/10/27 06:39:34;;;;;;;2.97;1.38;;;;;;;7.40;100.00;99482.69;4931915;29;20211;-42
2023/10/27 06:42:00;;;;;;;1.85;1.17;;;;;;;7.36;100.00;99490.91;4930171;29;20251;-43
2023/10/27 06:44:26;;;;;;;2.35;1.23;;;;;;;7.42;100.00;99485.31;4930240;29;20192;-43
2023/10/27 06:46:53;;;;;;;3.20;1.30;;;;;;;7.37;100.00;99493.50;4926967;29;20211;-43
2023/10/27 06:49:19;;;;;;;2.88;1.40;;;;;;;7.41;100.00;99478.22;4928500;29;20219;-43
2023/10/27 06:51:47;;;;;;;6.13;1.75;;;;;;;7.39;100.00;99482.75;4932808;29;20187;-43
2023/10/27 06:54:12;;;;;;;5.55;1.65;;;;;;;7.38;100.00;99487.22;4928579;29;20199;-41
2023/10/27 06:56:38;;;;;;;2.53;1.27;;;;;;;7.47;100.00;99488.59;4929018;29;20240;-41
2023/10/27 06:59:03;;;;;;;2.92;1.10;;;;;;;7.40;100.00;99487.16;4928380;29;20202;-44
2023/10/27 07:01:29;;;;;;;3.55;1.10;;;;;;;7.39;100.00;99494.31;4929128;29;20195;-43
2023/10/27 07:03:55;;;;;;;0.98;0.90;;;;;;;7.43;100.00;99490.56;4931710;29;20673;-41
2023/10/27 07:06:20;;;;;;;3.10;1.50;;;;;;;7.43;100.00;99493.22;4928287;29;20692;-41
2023/10/27 07:08:46;;;;;;;5.03;1.33;;;;;;;7.39;100.00;99512.06;4927492;29;20238;-43
2023/10/27 07:11:11;;;;;;;3.40;1.30;;;;;;;7.37;100.00;99490.00;4927338;29;20593;-41
2023/10/27 07:13:37;;;;;;;3.08;1.23;;;;;;;7.43;100.00;99501.22;4927686;29;20558;-43
2023/10/27 07:16:02;;;;;;;1.90;1.10;;;;;;;7.38;100.00;99499.69;4925779;29;20255;-43
2023/10/27 07:18:28;;;;;;;2.45;1.20;;;;;;;7.42;100.00;99501.28;4930810;29;20195;-42
2023/10/27 07:20:56;;;;;;;2.75;1.50;;;;;;;7.37;100.00;99501.50;4927790;29;20270;-43
2023/10/27 07:23:21;;;;;;;1.70;1.17;;;;;;;7.41;100.00;99505.75;4932254;29;20378;-43
2023/10/27 07:25:47;;;;;;;2.50;1.45;;;;;;;7.42;100.00;99504.81;4930207;29;20585;-42
2023/10/27 07:28:13;;;;;;;2.47;0.98;;;;;;;7.43;100.00;99500.34;4928486;29;20295;-43
2023/10/27 07:30:38;;;;;;;1.10;0.90;;;;;;;7.45;100.00;99501.13;4928728;29;20243;-42
2023/10/27 07:33:04;;;;;;;1.42;0.98;;;;;;;7.46;100.00;99499.34;4931004;29;20183;-43
2023/10/27 07:35:31;;;;;;;3.40;1.02;;;;;;;7.49;100.00;99499.19;4930828;29;20199;-44
2023/10/27 07:38:00;;;;;;;4.10;1.23;;;;;;;7.51;100.00;99494.66;4930254;29;20206;-42
2023/10/27 07:40:26;;;;;;;2.38;1.30;;;;;;;7.51;100.00;99497.34;4927623;29;20191;-43
2023/10/27 07:42:52;;;;;;;4.00;1.35;;;;;;;7.51;100.00;99516.00;4931139;29;20282;-43
2023/10/27 07:45:17;;;;;;;2.78;1.35;;;;;;;7.51;100.00;99505.31;4925867;29;20216;-40
2023/10/27 07:47:43;;;;;;;2.05;1.08;;;;;;;7.49;100.00;99504.53;4931534;29;20264;-43
2023/10/27 07:50:10;;;;;;;3.65;1.10;;;;;;;7.41;100.00;99503.09;4928504;29;20213;-42
2023/10/27 07:52:37;;;;;;;1.92;1.00;;;;;;;7.40;100.00;99504.00;4930470;29;20187;-41
2023/10/27 07:55:06;;;;;;;3.75;1.00;;;;;;;7.40;100.00;99501.34;4927649;29;20217;-41
2023/10/27 07:57:34;;;;;;;1.98;0.95;;;;;;;7.50;100.00;99490.25;4929416;29;20270;-43
2023/10/27 08:00:00;;;;;;;1.98;1.10;;;;;;;7.42;100.00;99498.63;4928365;29;20187;-43
2023/10/27 08:02:25;;;;;;;3.40;1.10;;;;;;;7.48;100.00;99492.13;4929675;29;20369;-43
2023/10/27 08:04:51;;;;;;;0.88;0.88;;;;;;;7.58;100.00;99488.94;4926541;29;20211;-44
2023/10/27 08:07:18;;;;;;;4.53;1.27;;;;;;;7.67;100.00;99486.78;4925639;29;20199;-43
2023/10/27 08:09:44;;;;;;;3.25;1.30;;;;;;;7.59;100.00;99497.84;4930245;29;20215;-44
2023/10/27 08:12:09;;;;;;;2.35;1.20;;;;;;;7.56;100.00;99485.50;4926150;29;20200;-43
2023/10/27 08:14:35;;;;;;;2.47;1.10;;;;;;;7.61;100.00;99482.63;4927185;29;20263;-44
2023/10/27 08:17:00;;;;;;;4.60;1.15;;;;;;;7.55;100.00;99489.13;4929435;29;20191;-42
2023/10/27 08:19:26;;;;;;;3.70;1.13;;;;;;;7.57;100.00;99494.38;4926220;29;20270;-44
2023/10/27 08:21:52;;;;;;;4.20;1.20;;;;;;;7.50;100.00;99495.59;4928219;29;20316;-43
2023/10/27 08:24:17;;;;;;;2.10;0.90;;;;;;;7.48;100.00;99495.69;4927432;29;20262;-45
2023/10/27 08:26:46;;;;;;;3.60;1.10;;;;;;;7.51;100.00;99494.66;4930635;29;20211;-46
2023/10/27 08:29:11;;;;;;;1.35;1.13;;;;;;;7.58;100.00;99498.75;4925093;29;20184;-44
2023/10/27 08:31:38;;;;;;;3.80;0.95;;;;;;;7.55;100.00;99486.44;4930615;29;20194;-43
2023/10/27 08:34:06;;;;;;;3.50;1.35;;;;;;;7.47;100.00;99491.28;4927163;29;20242;-43
2023/10/27 08:36:32;;;;;;;2.42;0.93;;;;;;;7.57;100.00;99497.03;4925450;29;20805;-43
2023/10/27 08:38:57;;;;;;;1.30;0.80;;;;;;;7.50;100.00;99491.16;4927960;29;20267;-45
2023/10/27 08:41:25;;;;;;;2.13;1.23;;;;;;;7.42;100.00;99493.28;4925136;29;20177;-42
2023/10/27 08:43:52;;;;;;;4.07;1.50;;;;;;;7.41;100.00;99497.78;4926667;29;20187;-42
2023/10/27 08:46:17;;;;;;;3.38;1.10;;;;;;;7.41;100.00;99496.88;4927631;29;20212;-42
2023/10/27 08:48:43;;;;;;;1.50;0.90;;;;;;;7.49;100.00;99493.88;4924209;29;20220;-43
2023/10/27 08:51:09;;;;;;;4.75;1.55;;;;;;;7.48;100.00;99484.13;4931542;29;20202;-45
2023/10/27 08:53:42;;;;;;;3.53;1.13;;;;;;;7.48;100.00;99503.69;4925982;29;20329;-43
2023/10/27 08:56:12;;;;;;;1.48;1.00;;;;;;;7.47;100.00;99501.06;4928604;29;20689;-43
2023/10/27 08:58:39;;;;;;;2.78;1.17;;;;;;;7.50;100.00;99496.47;4926920;29;20219;-44
2023/10/27 09:01:04;;;;;;;4.00;1.10;;;;;;;7.49;100.00;99500.06;4927660;29;20186;-41
2023/10/27 09:03:31;;;;;;;3.22;1.27;;;;;;;7.55;100.00;99488.25;4926309;29;20188;-43
2023/10/27 09:05:57;;;;;;;6.13;1.50;;;;;;;7.60;100.00;99488.91;4929535;29;20218;-42
2023/10/27 09:08:23;;;;;;;2.40;0.88;;;;;;;7.59;100.00;99496.03;4924832;29;20179;-43
2023/10/27 09:10:50;;;;;;;1.75;0.85;;;;;;;7.58;100.00;99498.75;4927530;29;20227;-42
2023/10/27 09:13:22;;;;;;;1.63;1.10;;;;;;;7.60;100.00;99492.41;4928766;29;20294;-42
2023/10/27 09:15:50;;;;;;;0.70;0.70;;;;;;;7.60;100.00;99508.41;4925796;29;20207;-43
2023/10/27 09:18:16;;;;;;;3.88;0.98;;;;;;;7.52;100.00;99494.59;4926205;29;20176;-43
2023/10/27 09:20:49;;;;;;;1.08;0.80;;;;;;;7.59;100.00;99504.03;4926384;29;20183;-43
2023/10/27 09:23:15;;;;;;;2.83;0.85;;;;;;;7.61;100.00;99503.97;4925545;29;20279;-42
2023/10/27 09:25:40;;;;;;;1.08;0.88;;;;;;;7.66;100.00;99507.25;4927341;29;20582;-42
2023/10/27 09:28:06;;;;;;;2.42;1.40;;;;;;;7.70;100.00;99506.19;4928961;29;20191;-44
2023/10/27 09:30:40;;;;;;;2.05;1.00;;;;;;;7.68;100.00;99497.41;4924958;29;20299;-49
2023/10/27 09:33:21;;;;;;;2.97;1.10;;;;;;;7.70;100.00;99498.19;4923891;29;20246;-48
2023/10/27 09:35:48;;;;;;;0.70;0.65;;;;;;;7.74;100.00;99499.78;4922573;29;20213;-47
2023/10/27 09:38:17;;;;;;;1.83;0.70;;;;;;;7.70;100.00;99506.19;4923285;29;20184;-49
2023/10/27 09:40:45;;;;;;;1.48;0.88;;;;;;;7.71;100.00;99499.91;4923203;29;20191;-43
2023/10/27 09:43:19;;;;;;;12.85;4.68;;;;;;;7.81;100.00;99506.53;4925745;29;20218;-45
2023/10/27 09:46:06;;;;;;;4.28;0.93;;;;;;;7.79;100.00;99504.88;4925756;29;20709;-43
2023/10/27 09:48:35;;;;;;;3.88;0.85;;;;;;;7.83;100.00;99503.81;4924411;29;20725;-43
2023/10/27 09:51:07;;;;;;;1.02;0.60;;;;;;;7.85;100.00;99499.25;4925715;29;20206;-42
2023/10/27 09:53:33;;;;;;;2.67;1.00;;;;;;;7.89;100.00;99506.16;4925340;29;20226;-42
2023/10/27 09:56:00;;;;;;;3.47;0.90;;;;;;;7.88;100.00;99515.09;4925872;29;20203;-42
2023/10/27 09:58:36;;;;;;;0.70;0.65;;;;;;;7.79;100.00;99497.75;4926237;29;21173;-43
2023/10/27 10:01:03;;;;;;;2.97;0.70;;;;;;;7.78;100.00;99504.03;4942032;29;20184;-44
2023/10/27 10:03:28;;;;;;;0.93;0.63;;;;;;;7.80;100.00;99510.13;4926873;29;20227;-43
2023/10/27 10:06:18;;;;;;;2.05;0.70;;;;;;;7.77;100.00;99510.28;4923029;29;20240;-43
2023/10/27 10:09:08;;;;;;;1.63;0.70;;;;;;;7.83;100.00;99507.31;4923559;29;20251;-42
2023/10/27 10:11:47;;;;;;;0.70;0.70;;;;;;;7.86;100.00;99505.44;4932509;29;20200;-44
2023/10/27 10:14:37;;;;;;;0.93;0.60;;;;;;;7.84;100.00;99503.72;4930490;29;20188;-42
2023/10/27 10:17:04;;;;;;;1.40;0.80;;;;;;;7.84;100.00;99503.72;4937714;29;20311;-42
2023/10/27 10:19:52;;;;;;;0.95;0.70;;;;;;;7.95;100.00;99502.34;4936460;28;20213;-43
2023/10/27 10:22:39;;;;;;;2.25;1.00;;;;;;;7.95;100.00;99507.66;4932296;29;20203;-45
2023/10/27 10:25:23;;;;;;;1.70;0.85;;;;;;;7.89;100.00;99505.28;4939827;29;20282;-45
2023/10/27 10:28:07;;;;;;;1.23;0.70;;;;;;;7.86;100.00;99497.44;4933384;29;20190;-43
2023/10/27 10:30:43;;;;;;;0.90;0.90;;;;;;;7.79;100.00;99496.88;4940248;28;20219;-43
2023/10/27 10:33:22;;;;;;;2.67;0.95;;;;;;;7.91;100.00;99500.75;4933395;29;20712;-44
2023/10/27 10:35:48;;;;;;;4.88;0.85;;;;;;;7.92;100.00;99508.69;4933106;29;20733;-41
2023/10/27 10:38:21;;;;;;;6.35;1.20;;;;;;;7.84;100.00;99498.38;4928153;29;20223;-41
2023/10/27 10:40:57;;;;;;;0.93;0.85;;;;;;;7.89;100.00;99498.16;4929622;29;20278;-44
2023/10/27 10:43:24;;;;;;;2.20;0.90;;;;;;;7.82;100.00;99508.25;4927849;29;20194;-43
2023/10/27 10:45:58;;;;;;;3.97;1.05;;;;;;;7.91;100.00;99506.09;4931088;29;20708;-42
2023/10/27 10:48:28;;;;;;;3.75;1.10;;;;;;;7.84;100.00;99497.50;4926354;29;20196;-42
2023/10/27 10:50:56;;;;;;;2.50;1.00;;;;;;;7.89;100.00;99503.47;4933677;29;20302;-45
2023/10/27 10:53:24;;;;;;;3.38;0.90;;;;;;;7.94;100.00;99505.94;4933036;29;20557;-44
2023/10/27 10:55:51;;;;;;;2.47;0.88;;;;;;;7.88;100.00;99498.25;4929392;29;20218;-43
2023/10/27 10:58:33;;;;;;;1.50;1.05;;;;;;;7.80;100.00;99499.44;4931463;29;20184;-41
2023/10/27 11:01:00;;;;;;;3.70;1.05;;;;;;;7.83;100.00;99499.31;4929315;29;20642;-42
2023/10/27 11:03:34;;;;;;;3.10;1.08;;;;;;;7.88;100.00;99499.09;4931943;29;20192;-43
2023/10/27 11:06:02;;;;;;;3.60;1.02;;;;;;;7.78;100.00;99500.47;4931300;29;20593;-44
2023/10/27 11:08:29;;;;;;;1.00;0.85;;;;;;;7.91;100.00;99506.09;4929387;29;20207;-44
2023/10/27 11:10:59;;;;;;;1.65;0.90;;;;;;;7.91;100.00;99500.75;4928993;29;20694;-42
2023/10/27 11:13:25;;;;;;;1.23;0.80;;;;;;;7.81;100.00;99506.53;4927504;29;20789;-43
2023/10/27 11:15:51;;;;;;;0.70;0.70;;;;;;;7.81;100.00;99511.00;4930319;29;20686;-42
2023/10/27 11:18:17;;;;;;;3.35;1.20;;;;;;;7.88;100.00;99495.56;4929860;29;20185;-42
2023/10/27 11:20:43;;;;;;;0.60;0.60;;;;;;;7.82;100.00;99492.25;4930572;29;20265;-40
2023/10/27 11:23:14;;;;;;;2.60;0.98;;;;;;;7.93;100.00;99491.72;4924242;29;20242;-42
2023/10/27 11:25:41;;;;;;;1.63;0.90;;;;;;;7.94;100.00;99495.28;4929651;29;20690;-42
2023/10/27 11:28:29;;;;;;;1.60;0.88;;;;;;;7.96;100.00;99493.38;4926756;29;20199;-42
2023/10/27 11:31:11;;;;;;;1.35;0.90;;;;;;;7.93;100.00;99493.53;4928346;29;20219;-42
2023/10/27 11:33:58;;;;;;;1.67;0.60;;;;;;;7.93;100.00;99498.88;4929077;29;20191;-41